createdAt,value
2019-05-19T00:00:31.097Z,7.28
2019-05-19T00:04:35.607Z,6.65
2019-05-19T00:08:40.160Z,6.95
2019-05-19T00:12:44.723Z,6.20
2019-05-19T00:16:49.261Z,6.40
2019-05-19T00:20:53.834Z,5.73
2019-05-19T00:24:58.347Z,7.00
2019-05-19T00:29:02.886Z,6.13
2019-05-19T00:33:07.451Z,5.47
2019-05-19T00:37:11.986Z,5.57
2019-05-19T00:41:16.526Z,5.10
2019-05-19T00:45:21.258Z,6.33
2019-05-19T00:49:25.821Z,5.50
2019-05-19T00:53:30.429Z,6.07
2019-05-19T00:57:36.218Z,5.83
2019-05-19T01:01:40.779Z,5.27
2019-05-19T01:05:45.289Z,6.00
2019-05-19T01:09:49.849Z,6.47
2019-05-19T01:13:54.404Z,6.30
2019-05-19T01:17:58.940Z,5.80
2019-05-19T01:22:03.925Z,5.33
2019-05-19T01:26:08.435Z,5.40
2019-05-19T01:30:13.287Z,5.90
2019-05-19T01:34:17.833Z,7.13
2019-05-19T01:38:22.380Z,7.63
2019-05-19T01:42:26.920Z,8.10
2019-05-19T01:46:31.491Z,6.97
2019-05-19T01:50:36.026Z,4.73
2019-05-19T01:54:40.573Z,6.50
2019-05-19T01:58:45.126Z,6.23
2019-05-19T02:02:49.712Z,6.93
2019-05-19T02:06:54.217Z,6.57
2019-05-19T02:10:58.745Z,5.87
2019-05-19T02:15:03.565Z,5.47
2019-05-19T02:19:08.125Z,5.53
2019-05-19T02:23:12.684Z,5.47
2019-05-19T02:27:17.178Z,5.67
2019-05-19T02:31:21.741Z,6.23
2019-05-19T02:35:25.658Z,6.30
2019-05-19T02:39:30.179Z,6.87
2019-05-19T02:43:34.816Z,5.70
2019-05-19T02:47:41.742Z,5.47
2019-05-19T02:51:48.999Z,5.80
2019-05-19T02:55:55.258Z,7.13
2019-05-19T03:00:00.825Z,5.93
2019-05-19T03:04:05.375Z,6.03
2019-05-19T03:08:09.882Z,5.13
2019-05-19T03:12:14.430Z,5.37
2019-05-19T03:16:18.962Z,4.00
2019-05-19T03:20:23.531Z,2.73
2019-05-19T03:24:28.093Z,6.93
2019-05-19T03:28:32.634Z,10.63
2019-05-19T03:32:42.366Z,10.33
2019-05-19T03:36:46.914Z,9.90
2019-05-19T03:40:51.458Z,8.93
2019-05-19T03:44:56.034Z,8.38
2019-05-19T03:49:00.554Z,8.00
2019-05-19T03:53:05.114Z,8.45
2019-05-19T03:57:09.654Z,8.58
2019-05-19T04:01:14.214Z,9.03
2019-05-19T04:05:18.773Z,8.78
2019-05-19T04:09:23.289Z,7.53
2019-05-19T04:13:27.882Z,7.53
2019-05-19T04:17:32.456Z,8.18
2019-05-19T04:21:48.080Z,8.43
2019-05-19T04:25:43.217Z,8.43
2019-05-19T04:29:47.715Z,7.80
2019-05-19T04:33:52.237Z,9.15
2019-05-19T04:37:56.982Z,8.48
2019-05-19T04:42:01.512Z,8.55
2019-05-19T04:46:06.103Z,8.05
2019-05-19T04:50:10.602Z,8.45
2019-05-19T04:54:15.169Z,8.18
2019-05-19T04:58:19.722Z,8.10
2019-05-19T05:02:24.284Z,8.88
2019-05-19T05:06:28.817Z,8.63
2019-05-19T05:10:33.361Z,10.43
2019-05-19T05:14:37.930Z,10.93
2019-05-19T05:18:42.489Z,10.20
2019-05-19T05:22:47.050Z,10.88
2019-05-19T05:26:51.613Z,12.58
2019-05-19T05:30:56.148Z,13.28
2019-05-19T05:35:00.758Z,14.03
2019-05-19T05:39:06.610Z,14.03
2019-05-19T05:43:11.197Z,14.35
2019-05-19T05:47:15.801Z,13.65
2019-05-19T05:51:20.309Z,14.40
2019-05-19T05:55:25.223Z,15.30
2019-05-19T05:59:42.695Z,16.00
2019-05-19T06:03:47.781Z,17.67
2019-05-19T06:07:52.322Z,17.80
2019-05-19T06:11:56.909Z,18.42
2019-05-19T06:16:01.409Z,18.33
2019-05-19T06:20:06.404Z,18.55
2019-05-19T06:24:11.116Z,19.15
2019-05-19T06:28:15.686Z,19.05
2019-05-19T06:32:27.293Z,17.23
2019-05-19T06:36:31.806Z,16.87
2019-05-19T06:40:36.345Z,15.93
2019-05-19T06:44:40.938Z,15.60
2019-05-19T06:48:45.497Z,14.80
2019-05-19T06:52:50.010Z,15.13
2019-05-19T06:56:54.533Z,12.97
2019-05-19T07:00:59.360Z,10.93
2019-05-19T07:05:04.165Z,10.27
2019-05-19T07:09:08.883Z,8.87
2019-05-19T07:13:13.380Z,8.40
2019-05-19T07:17:17.911Z,7.10
2019-05-19T07:21:22.440Z,6.33
2019-05-19T07:25:26.967Z,6.30
2019-05-19T07:29:31.513Z,6.00
2019-05-19T07:33:35.998Z,5.97
2019-05-19T07:37:40.526Z,5.83
2019-05-19T07:41:45.075Z,6.00
2019-05-19T07:45:49.666Z,5.23
2019-05-19T07:49:54.191Z,5.20
2019-05-19T07:53:58.693Z,4.80
2019-05-19T07:58:03.235Z,6.03
2019-05-19T08:02:07.815Z,6.03
2019-05-19T08:06:12.401Z,6.47
2019-05-19T08:10:16.293Z,5.80
2019-05-19T08:14:20.823Z,5.80
2019-05-19T08:18:25.416Z,5.70
2019-05-19T08:22:30.015Z,5.80
2019-05-19T08:26:34.568Z,5.53
2019-05-19T08:30:39.041Z,5.80
2019-05-19T08:34:43.566Z,6.50
2019-05-19T08:38:48.101Z,6.00
2019-05-19T08:42:52.637Z,6.03
2019-05-19T08:46:57.193Z,6.33
2019-05-19T08:51:01.690Z,7.63
2019-05-19T08:55:06.425Z,8.03
2019-05-19T08:59:10.976Z,8.20
2019-05-19T09:03:15.530Z,8.10
2019-05-19T09:07:20.084Z,8.33
2019-05-19T09:11:24.571Z,10.10
2019-05-19T09:15:29.101Z,9.20
2019-05-19T09:19:33.612Z,8.93
2019-05-19T09:23:38.161Z,9.50
2019-05-19T09:27:42.700Z,9.67
2019-05-19T09:31:47.198Z,9.70
2019-05-19T09:35:51.731Z,9.73
2019-05-19T09:39:56.256Z,9.30
2019-05-19T09:44:00.857Z,9.77
2019-05-19T09:48:05.373Z,10.47
2019-05-19T09:52:09.873Z,9.83
2019-05-19T09:56:22.476Z,9.87
2019-05-19T10:00:27.001Z,9.73
2019-05-19T10:04:31.573Z,10.10
2019-05-19T10:08:36.982Z,11.23
2019-05-19T10:12:41.485Z,10.40
2019-05-19T10:16:46.036Z,10.40
2019-05-19T10:20:50.617Z,8.93
2019-05-19T10:25:19.923Z,9.03
2019-05-19T10:29:01.514Z,8.87
2019-05-19T10:33:06.028Z,9.23
2019-05-19T10:37:12.701Z,8.87
2019-05-19T10:41:17.239Z,9.80
2019-05-19T10:45:22.064Z,9.53
2019-05-19T10:49:26.558Z,9.27
2019-05-19T10:53:31.054Z,9.13
2019-05-19T10:57:35.588Z,8.47
2019-05-19T11:01:40.138Z,7.33
2019-05-19T11:05:44.658Z,6.20
2019-05-19T11:09:49.184Z,7.67
2019-05-19T11:13:53.753Z,7.27
2019-05-19T11:17:58.289Z,6.20
2019-05-19T11:22:02.837Z,6.63
2019-05-19T11:26:07.377Z,7.17
2019-05-19T11:30:11.948Z,7.00
2019-05-19T11:34:16.456Z,7.07
2019-05-19T11:38:21.025Z,7.37
2019-05-19T11:42:25.574Z,7.63
2019-05-19T11:46:30.155Z,8.27
2019-05-19T11:50:34.703Z,8.00
2019-05-19T11:54:39.218Z,8.43
2019-05-19T11:58:43.776Z,8.43
2019-05-19T12:02:48.402Z,7.57
2019-05-19T12:06:52.920Z,7.03
2019-05-19T12:10:57.469Z,6.83
2019-05-19T12:15:01.966Z,6.67
2019-05-19T12:19:06.501Z,7.27
2019-05-19T12:23:11.061Z,6.87
2019-05-19T12:27:15.602Z,7.40
2019-05-19T12:31:20.120Z,6.97
2019-05-19T12:35:24.668Z,7.43
2019-05-19T12:39:29.165Z,7.33
2019-05-19T12:43:33.689Z,6.83
2019-05-19T12:47:39.820Z,6.60
2019-05-19T12:51:44.344Z,6.40
2019-05-19T12:55:48.879Z,7.00
2019-05-19T12:59:53.381Z,6.77
2019-05-19T13:03:57.921Z,6.60
2019-05-19T13:08:02.466Z,6.87
2019-05-19T13:12:06.999Z,6.10
2019-05-19T13:16:11.493Z,6.90
2019-05-19T13:20:16.141Z,6.80
2019-05-19T13:24:20.689Z,6.73
2019-05-19T13:28:25.242Z,6.90
2019-05-19T13:32:29.777Z,6.30
2019-05-19T13:36:34.322Z,6.93
2019-05-19T13:40:38.857Z,6.83
2019-05-19T13:44:43.409Z,6.07
2019-05-19T13:48:47.960Z,5.00
2019-05-19T13:52:52.503Z,6.20
2019-05-19T13:57:11.245Z,6.00
2019-05-19T14:01:03.253Z,6.90
2019-05-19T14:05:07.787Z,5.83
2019-05-19T14:09:15.232Z,5.73
2019-05-19T14:13:18.728Z,5.47
2019-05-19T14:17:23.214Z,5.40
2019-05-19T14:21:27.820Z,5.90
2019-05-19T14:25:32.348Z,5.80
2019-05-19T14:29:36.936Z,6.17
2019-05-19T14:33:41.506Z,5.53
2019-05-19T14:37:46.053Z,5.93
2019-05-19T14:41:54.773Z,5.93
2019-05-19T14:45:59.402Z,5.47
2019-05-19T14:50:03.976Z,5.77
2019-05-19T14:54:08.567Z,5.43
2019-05-19T14:58:13.080Z,5.80
2019-05-19T15:02:19.947Z,4.60
2019-05-19T15:06:23.944Z,4.90
2019-05-19T15:10:28.492Z,5.03
2019-05-19T15:14:33.045Z,5.63
2019-05-19T15:18:38.397Z,5.53
2019-05-19T15:22:43.126Z,5.60
2019-05-19T15:26:47.686Z,5.33
2019-05-19T15:30:52.313Z,5.83
2019-05-19T15:34:56.950Z,5.40
2019-05-19T15:39:01.608Z,5.73
2019-05-19T15:43:06.172Z,5.20
2019-05-19T15:47:10.920Z,6.37
2019-05-19T15:51:27.573Z,5.37
2019-05-19T15:55:21.654Z,5.27
2019-05-19T15:59:26.198Z,5.37
2019-05-19T16:03:30.754Z,5.70
2019-05-19T16:07:35.311Z,5.23
2019-05-19T16:11:39.870Z,5.50
2019-05-19T16:15:44.421Z,4.83
2019-05-19T16:19:48.937Z,5.40
2019-05-19T16:23:53.485Z,5.20
2019-05-19T16:27:58.048Z,6.17
2019-05-19T16:32:02.622Z,5.70
2019-05-19T16:36:07.955Z,6.03
2019-05-19T16:40:12.696Z,6.03
2019-05-19T16:44:17.269Z,6.33
2019-05-19T16:48:23.466Z,5.90
2019-05-19T16:52:28.169Z,5.77
2019-05-19T16:56:37.948Z,5.53
2019-05-19T17:00:42.487Z,6.07
2019-05-19T17:04:47.010Z,5.97
2019-05-19T17:08:51.534Z,5.70
2019-05-19T17:12:56.194Z,5.63
2019-05-19T17:17:00.692Z,5.57
2019-05-19T17:21:05.230Z,5.33
2019-05-19T17:25:09.866Z,5.47
2019-05-19T17:29:14.388Z,5.87
2019-05-19T17:33:18.991Z,5.37
2019-05-19T17:37:23.494Z,5.17
2019-05-19T17:41:28.009Z,5.97
2019-05-19T17:45:32.625Z,5.50
2019-05-19T17:49:37.141Z,5.20
2019-05-19T17:53:42.017Z,5.40
2019-05-19T17:57:47.136Z,5.83
2019-05-19T18:01:51.657Z,6.00
2019-05-19T18:05:56.212Z,6.30
2019-05-19T18:10:00.726Z,6.20
2019-05-19T18:14:05.250Z,7.80
2019-05-19T18:18:09.752Z,7.93
2019-05-19T18:22:14.389Z,8.00
2019-05-19T18:26:18.912Z,7.47
2019-05-19T18:30:23.442Z,7.50
2019-05-19T18:34:27.991Z,8.70
2019-05-19T18:38:32.481Z,9.10
2019-05-19T18:42:37.030Z,8.87
2019-05-19T18:46:41.597Z,8.10
2019-05-19T18:50:46.133Z,9.03
2019-05-19T18:54:51.081Z,8.43
2019-05-19T18:58:55.605Z,8.83
2019-05-19T19:03:00.136Z,9.33
2019-05-19T19:07:04.695Z,10.00
2019-05-19T19:11:09.241Z,9.17
2019-05-19T19:15:13.741Z,8.50
2019-05-19T19:19:18.261Z,9.27
2019-05-19T19:23:22.912Z,9.53
2019-05-19T19:27:27.485Z,10.27
2019-05-19T19:31:32.065Z,9.37
2019-05-19T19:35:39.139Z,10.73
2019-05-19T19:39:42.780Z,11.27
2019-05-19T19:43:47.442Z,11.20
2019-05-19T19:47:52.018Z,11.43
2019-05-19T19:51:56.557Z,11.20
2019-05-19T19:56:01.065Z,11.83
2019-05-19T20:00:17.929Z,10.70
2019-05-19T20:04:12.622Z,10.13
2019-05-19T20:08:17.197Z,10.13
2019-05-19T20:12:22.594Z,10.20
2019-05-19T20:16:27.146Z,10.37
2019-05-19T20:20:31.707Z,10.37
2019-05-19T20:24:36.304Z,10.43
2019-05-19T20:28:40.888Z,11.20
2019-05-19T20:32:45.469Z,10.40
2019-05-19T20:36:49.987Z,10.97
2019-05-19T20:40:54.572Z,10.60
2019-05-19T20:44:59.150Z,10.60
2019-05-19T20:49:03.719Z,11.23
2019-05-19T20:53:08.294Z,11.07
2019-05-19T20:57:12.847Z,11.03
2019-05-19T21:01:17.401Z,9.97
2019-05-19T21:05:21.949Z,11.43
2019-05-19T21:09:26.535Z,11.70
2019-05-19T21:13:31.080Z,11.90
2019-05-19T21:17:35.594Z,11.73
2019-05-19T21:21:40.185Z,11.77
2019-05-19T21:25:44.737Z,11.57
2019-05-19T21:29:49.310Z,11.20
2019-05-19T21:33:53.858Z,11.83
2019-05-19T21:37:58.418Z,11.60
2019-05-19T21:42:02.973Z,12.57
2019-05-19T21:46:07.585Z,11.63
2019-05-19T21:50:12.168Z,12.43
2019-05-19T21:54:16.692Z,11.40
2019-05-19T21:58:21.254Z,11.73
2019-05-19T22:02:25.805Z,12.40
2019-05-19T22:06:32.069Z,12.40
2019-05-19T22:10:36.642Z,13.43
2019-05-19T22:14:41.180Z,12.03
2019-05-19T22:18:45.750Z,13.10
2019-05-19T22:22:50.306Z,12.27
2019-05-19T22:26:54.864Z,12.73
2019-05-19T22:30:59.442Z,12.07
2019-05-19T22:35:03.963Z,12.17
2019-05-19T22:39:08.517Z,13.80
2019-05-19T22:43:13.106Z,12.93
2019-05-19T22:47:17.777Z,13.47
2019-05-19T22:51:22.855Z,13.97
2019-05-19T22:55:27.553Z,14.67
2019-05-19T22:59:32.118Z,12.97
2019-05-19T23:03:36.682Z,12.87
2019-05-19T23:07:41.237Z,13.60
2019-05-19T23:11:45.788Z,14.77
2019-05-19T23:15:50.356Z,12.63
2019-05-19T23:19:54.954Z,14.90
2019-05-19T23:23:59.613Z,14.60
2019-05-19T23:28:04.305Z,15.00
2019-05-19T23:32:08.892Z,15.60
2019-05-19T23:36:13.455Z,15.40
2019-05-19T23:40:17.992Z,15.00
2019-05-19T23:44:22.588Z,17.23
2019-05-19T23:48:27.170Z,15.70
2019-05-19T23:52:31.760Z,15.57
2019-05-19T23:56:36.309Z,15.87
